sensor_id;sensor_type;location;lat;lon;timestamp;temperature;humidity
61841;DHT22;47773;53.174;6.614;2023-03-01T00:01:10;1.50;99.90
61841;DHT22;47773;53.174;6.614;2023-03-01T00:03:37;1.50;99.90
61841;DHT22;47773;53.174;6.614;2023-03-01T00:06:03;1.40;99.90
61841;DHT22;47773;53.174;6.614;2023-03-01T00:08:29;1.40;99.90
61841;DHT22;47773;53.174;6.614;2023-03-01T00:11:14;1.40;99.90
61841;DHT22;47773;53.174;6.614;2023-03-01T00:13:41;1.40;99.90
61841;DHT22;47773;53.174;6.614;2023-03-01T00:16:09;1.40;99.90
61841;DHT22;47773;53.174;6.614;2023-03-01T00:18:35;1.40;99.90
61841;DHT22;47773;53.174;6.614;2023-03-01T00:21:01;1.40;99.90
61841;DHT22;47773;53.174;6.614;2023-03-01T00:23:27;1.40;99.90
61841;DHT22;47773;53.174;6.614;2023-03-01T00:25:53;1.30;99.90
61841;DHT22;47773;53.174;6.614;2023-03-01T00:28:19;1.30;99.90
61841;DHT22;47773;53.174;6.614;2023-03-01T00:30:45;1.30;99.90
61841;DHT22;47773;53.174;6.614;2023-03-01T00:33:11;1.30;99.90
61841;DHT22;47773;53.174;6.614;2023-03-01T00:35:37;1.30;99.90
61841;DHT22;47773;53.174;6.614;2023-03-01T00:38:03;1.30;99.90
61841;DHT22;47773;53.174;6.614;2023-03-01T00:40:31;1.30;99.90
61841;DHT22;47773;53.174;6.614;2023-03-01T00:42:57;1.20;99.90
61841;DHT22;47773;53.174;6.614;2023-03-01T00:45:23;1.30;99.90
61841;DHT22;47773;53.174;6.614;2023-03-01T00:47:49;1.20;99.90
61841;DHT22;47773;53.174;6.614;2023-03-01T00:50:15;1.20;99.90
61841;DHT22;47773;53.174;6.614;2023-03-01T00:52:41;1.20;99.90
61841;DHT22;47773;53.174;6.614;2023-03-01T00:55:07;1.20;99.90
61841;DHT22;47773;53.174;6.614;2023-03-01T00:57:32;1.20;99.90
61841;DHT22;47773;53.174;6.614;2023-03-01T00:59:58;1.20;99.90
61841;DHT22;47773;53.174;6.614;2023-03-01T01:02:24;1.20;99.90
61841;DHT22;47773;53.174;6.614;2023-03-01T01:04:50;1.20;99.90
61841;DHT22;47773;53.174;6.614;2023-03-01T01:07:15;1.10;99.90
61841;DHT22;47773;53.174;6.614;2023-03-01T01:09:41;1.10;99.90
61841;DHT22;47773;53.174;6.614;2023-03-01T01:12:07;1.10;99.90
61841;DHT22;47773;53.174;6.614;2023-03-01T01:14:33;1.10;99.90
61841;DHT22;47773;53.174;6.614;2023-03-01T01:16:59;1.10;99.90
61841;DHT22;47773;53.174;6.614;2023-03-01T01:19:26;1.10;99.90
61841;DHT22;47773;53.174;6.614;2023-03-01T01:21:52;1.10;99.90
61841;DHT22;47773;53.174;6.614;2023-03-01T01:24:18;1.10;99.90
61841;DHT22;47773;53.174;6.614;2023-03-01T01:26:44;1.00;99.90
61841;DHT22;47773;53.174;6.614;2023-03-01T01:29:10;1.00;99.90
61841;DHT22;47773;53.174;6.614;2023-03-01T01:31:39;1.00;99.90
61841;DHT22;47773;53.174;6.614;2023-03-01T01:34:07;1.00;99.90
61841;DHT22;47773;53.174;6.614;2023-03-01T01:36:33;1.00;99.90
61841;DHT22;47773;53.174;6.614;2023-03-01T01:38:59;1.00;99.90
61841;DHT22;47773;53.174;6.614;2023-03-01T01:41:27;0.90;99.90
61841;DHT22;47773;53.174;6.614;2023-03-01T01:44:13;0.90;99.90
61841;DHT22;47773;53.174;6.614;2023-03-01T01:46:46;0.90;99.90
61841;DHT22;47773;53.174;6.614;2023-03-01T01:49:29;0.90;99.90
61841;DHT22;47773;53.174;6.614;2023-03-01T01:52:03;0.90;99.90
61841;DHT22;47773;53.174;6.614;2023-03-01T01:57:23;0.80;99.90
61841;DHT22;47773;53.174;6.614;2023-03-01T01:59:54;0.80;99.90
61841;DHT22;47773;53.174;6.614;2023-03-01T02:02:20;0.80;99.90
61841;DHT22;47773;53.174;6.614;2023-03-01T02:04:47;0.80;99.90
61841;DHT22;47773;53.174;6.614;2023-03-01T02:07:15;0.80;99.90
61841;DHT22;47773;53.174;6.614;2023-03-01T02:09:46;0.80;99.90
61841;DHT22;47773;53.174;6.614;2023-03-01T02:12:14;0.80;99.90
61841;DHT22;47773;53.174;6.614;2023-03-01T02:14:40;0.80;99.90
61841;DHT22;47773;53.174;6.614;2023-03-01T02:17:06;0.80;99.90
61841;DHT22;47773;53.174;6.614;2023-03-01T02:22:25;0.70;99.90
61841;DHT22;47773;53.174;6.614;2023-03-01T02:27:36;0.70;99.90
61841;DHT22;47773;53.174;6.614;2023-03-01T02:30:05;0.70;99.90
61841;DHT22;47773;53.174;6.614;2023-03-01T02:32:32;0.70;99.90
61841;DHT22;47773;53.174;6.614;2023-03-01T02:34:57;0.70;99.90
61841;DHT22;47773;53.174;6.614;2023-03-01T02:37:24;0.70;99.90
61841;DHT22;47773;53.174;6.614;2023-03-01T02:39:56;0.70;99.90
61841;DHT22;47773;53.174;6.614;2023-03-01T02:42:31;0.70;99.90
61841;DHT22;47773;53.174;6.614;2023-03-01T02:44:59;0.60;99.90
61841;DHT22;47773;53.174;6.614;2023-03-01T02:47:24;0.60;99.90
61841;DHT22;47773;53.174;6.614;2023-03-01T02:49:50;0.60;99.90
61841;DHT22;47773;53.174;6.614;2023-03-01T02:57:27;0.60;99.90
61841;DHT22;47773;53.174;6.614;2023-03-01T02:59:54;0.60;99.90
61841;DHT22;47773;53.174;6.614;2023-03-01T03:02:26;0.60;99.90
61841;DHT22;47773;53.174;6.614;2023-03-01T03:05:09;0.50;99.90
61841;DHT22;47773;53.174;6.614;2023-03-01T03:07:38;0.60;99.90
61841;DHT22;47773;53.174;6.614;2023-03-01T03:10:06;0.50;99.90
61841;DHT22;47773;53.174;6.614;2023-03-01T03:12:32;0.50;99.90
61841;DHT22;47773;53.174;6.614;2023-03-01T03:14:58;0.50;99.90
61841;DHT22;47773;53.174;6.614;2023-03-01T03:17:24;0.50;99.90
61841;DHT22;47773;53.174;6.614;2023-03-01T03:19:49;0.50;99.90
61841;DHT22;47773;53.174;6.614;2023-03-01T03:22:15;0.50;99.90
61841;DHT22;47773;53.174;6.614;2023-03-01T03:24:41;0.50;99.90
61841;DHT22;47773;53.174;6.614;2023-03-01T03:27:07;0.50;99.90
61841;DHT22;47773;53.174;6.614;2023-03-01T03:29:33;0.50;99.90
61841;DHT22;47773;53.174;6.614;2023-03-01T03:31:59;0.40;99.90
61841;DHT22;47773;53.174;6.614;2023-03-01T03:34:24;0.40;99.90
61841;DHT22;47773;53.174;6.614;2023-03-01T03:36:57;0.40;99.90
61841;DHT22;47773;53.174;6.614;2023-03-01T03:39:26;0.40;99.90
61841;DHT22;47773;53.174;6.614;2023-03-01T03:42:00;0.40;99.90
61841;DHT22;47773;53.174;6.614;2023-03-01T03:44:26;0.40;99.90
61841;DHT22;47773;53.174;6.614;2023-03-01T03:46:51;0.40;99.90
61841;DHT22;47773;53.174;6.614;2023-03-01T03:49:17;0.40;99.90
61841;DHT22;47773;53.174;6.614;2023-03-01T03:51:45;0.40;99.90
61841;DHT22;47773;53.174;6.614;2023-03-01T03:54:11;0.40;99.90
61841;DHT22;47773;53.174;6.614;2023-03-01T03:56:37;0.40;99.90
61841;DHT22;47773;53.174;6.614;2023-03-01T03:59:02;0.40;99.90
61841;DHT22;47773;53.174;6.614;2023-03-01T04:01:28;0.40;99.90
61841;DHT22;47773;53.174;6.614;2023-03-01T04:03:54;0.40;99.90
61841;DHT22;47773;53.174;6.614;2023-03-01T04:06:20;0.30;99.90
61841;DHT22;47773;53.174;6.614;2023-03-01T04:08:46;0.30;99.90
61841;DHT22;47773;53.174;6.614;2023-03-01T04:11:12;0.30;99.90
61841;DHT22;47773;53.174;6.614;2023-03-01T04:13:55;0.30;99.90
61841;DHT22;47773;53.174;6.614;2023-03-01T04:16:21;0.30;99.90
61841;DHT22;47773;53.174;6.614;2023-03-01T04:18:47;0.30;99.90
61841;DHT22;47773;53.174;6.614;2023-03-01T04:21:13;0.20;99.90
61841;DHT22;47773;53.174;6.614;2023-03-01T04:23:39;0.30;99.90
61841;DHT22;47773;53.174;6.614;2023-03-01T04:26:07;0.30;99.90
61841;DHT22;47773;53.174;6.614;2023-03-01T04:28:41;0.20;99.90
61841;DHT22;47773;53.174;6.614;2023-03-01T04:31:13;0.20;99.90
61841;DHT22;47773;53.174;6.614;2023-03-01T04:33:46;0.20;99.90
61841;DHT22;47773;53.174;6.614;2023-03-01T04:36:13;0.20;99.90
61841;DHT22;47773;53.174;6.614;2023-03-01T04:38:39;0.20;99.90
61841;DHT22;47773;53.174;6.614;2023-03-01T04:41:07;0.20;99.90
61841;DHT22;47773;53.174;6.614;2023-03-01T04:43:34;0.20;99.90
61841;DHT22;47773;53.174;6.614;2023-03-01T04:46:05;0.20;99.90
61841;DHT22;47773;53.174;6.614;2023-03-01T04:48:32;0.20;99.90
61841;DHT22;47773;53.174;6.614;2023-03-01T04:50:59;0.20;99.90
61841;DHT22;47773;53.174;6.614;2023-03-01T04:53:25;0.20;99.90
61841;DHT22;47773;53.174;6.614;2023-03-01T04:55:51;0.20;99.90
61841;DHT22;47773;53.174;6.614;2023-03-01T04:58:17;0.20;99.90
61841;DHT22;47773;53.174;6.614;2023-03-01T05:00:43;0.20;99.90
61841;DHT22;47773;53.174;6.614;2023-03-01T05:03:09;0.20;99.90
61841;DHT22;47773;53.174;6.614;2023-03-01T05:05:36;0.10;99.90
61841;DHT22;47773;53.174;6.614;2023-03-01T05:08:06;0.10;99.90
61841;DHT22;47773;53.174;6.614;2023-03-01T05:10:33;0.10;99.90
61841;DHT22;47773;53.174;6.614;2023-03-01T05:13:01;0.10;99.90
61841;DHT22;47773;53.174;6.614;2023-03-01T05:15:29;0.10;99.90
61841;DHT22;47773;53.174;6.614;2023-03-01T05:17:57;0.00;99.90
61841;DHT22;47773;53.174;6.614;2023-03-01T05:20:30;0.00;99.90
61841;DHT22;47773;53.174;6.614;2023-03-01T05:22:58;0.00;99.90
61841;DHT22;47773;53.174;6.614;2023-03-01T05:25:24;0.00;99.90
61841;DHT22;47773;53.174;6.614;2023-03-01T05:27:50;0.00;99.90
61841;DHT22;47773;53.174;6.614;2023-03-01T05:30:17;0.00;99.90
61841;DHT22;47773;53.174;6.614;2023-03-01T05:32:45;-0.10;99.90
61841;DHT22;47773;53.174;6.614;2023-03-01T05:35:13;-0.10;99.90
61841;DHT22;47773;53.174;6.614;2023-03-01T05:37:40;-0.20;99.90
61841;DHT22;47773;53.174;6.614;2023-03-01T05:40:08;-0.20;99.90
61841;DHT22;47773;53.174;6.614;2023-03-01T05:42:44;-0.30;99.90
61841;DHT22;47773;53.174;6.614;2023-03-01T05:45:11;-0.30;99.90
61841;DHT22;47773;53.174;6.614;2023-03-01T05:47:39;-0.30;99.90
61841;DHT22;47773;53.174;6.614;2023-03-01T05:50:13;-0.30;99.90
61841;DHT22;47773;53.174;6.614;2023-03-01T05:52:39;-0.30;99.90
61841;DHT22;47773;53.174;6.614;2023-03-01T05:55:05;-0.30;99.90
61841;DHT22;47773;53.174;6.614;2023-03-01T05:57:31;-0.30;99.90
61841;DHT22;47773;53.174;6.614;2023-03-01T05:59:57;-0.30;99.90
61841;DHT22;47773;53.174;6.614;2023-03-01T06:02:22;-0.40;99.90
61841;DHT22;47773;53.174;6.614;2023-03-01T06:04:48;-0.40;99.90
61841;DHT22;47773;53.174;6.614;2023-03-01T06:07:14;-0.40;99.90
61841;DHT22;47773;53.174;6.614;2023-03-01T06:09:39;-0.40;99.90
61841;DHT22;47773;53.174;6.614;2023-03-01T06:12:05;-0.40;99.90
61841;DHT22;47773;53.174;6.614;2023-03-01T06:14:31;-0.40;99.90
61841;DHT22;47773;53.174;6.614;2023-03-01T06:16:57;-0.40;99.90
61841;DHT22;47773;53.174;6.614;2023-03-01T06:19:23;-0.40;99.90
61841;DHT22;47773;53.174;6.614;2023-03-01T06:21:49;-0.40;99.90
61841;DHT22;47773;53.174;6.614;2023-03-01T06:24:15;-0.40;99.90
61841;DHT22;47773;53.174;6.614;2023-03-01T06:26:40;-0.50;99.90
61841;DHT22;47773;53.174;6.614;2023-03-01T06:29:07;-0.50;99.90
61841;DHT22;47773;53.174;6.614;2023-03-01T06:31:34;-0.50;99.90
61841;DHT22;47773;53.174;6.614;2023-03-01T06:33:59;-0.50;99.90
61841;DHT22;47773;53.174;6.614;2023-03-01T06:36:25;-0.50;99.90
61841;DHT22;47773;53.174;6.614;2023-03-01T06:38:51;-0.50;99.90
61841;DHT22;47773;53.174;6.614;2023-03-01T06:41:16;-0.50;99.90
61841;DHT22;47773;53.174;6.614;2023-03-01T06:43:42;-0.50;99.90
61841;DHT22;47773;53.174;6.614;2023-03-01T06:46:07;-0.50;99.90
61841;DHT22;47773;53.174;6.614;2023-03-01T06:48:33;-0.50;99.90
61841;DHT22;47773;53.174;6.614;2023-03-01T06:51:00;-0.40;99.90
61841;DHT22;47773;53.174;6.614;2023-03-01T06:53:27;-0.40;99.90
61841;DHT22;47773;53.174;6.614;2023-03-01T06:55:57;-0.40;99.90
61841;DHT22;47773;53.174;6.614;2023-03-01T06:58:24;-0.40;99.90
61841;DHT22;47773;53.174;6.614;2023-03-01T07:00:50;-0.40;99.90
61841;DHT22;47773;53.174;6.614;2023-03-01T07:03:15;-0.30;99.90
61841;DHT22;47773;53.174;6.614;2023-03-01T07:05:41;-0.30;99.90
61841;DHT22;47773;53.174;6.614;2023-03-01T07:08:07;-0.30;99.90
61841;DHT22;47773;53.174;6.614;2023-03-01T07:10:33;-0.20;99.90
61841;DHT22;47773;53.174;6.614;2023-03-01T07:12:58;-0.20;99.90
61841;DHT22;47773;53.174;6.614;2023-03-01T07:15:26;-0.10;99.90
61841;DHT22;47773;53.174;6.614;2023-03-01T07:17:52;0.00;99.90
61841;DHT22;47773;53.174;6.614;2023-03-01T07:20:18;0.10;99.90
61841;DHT22;47773;53.174;6.614;2023-03-01T07:22:44;0.20;99.90
61841;DHT22;47773;53.174;6.614;2023-03-01T07:25:10;0.30;99.90
61841;DHT22;47773;53.174;6.614;2023-03-01T07:27:36;0.40;99.90
61841;DHT22;47773;53.174;6.614;2023-03-01T07:30:02;0.50;99.90
61841;DHT22;47773;53.174;6.614;2023-03-01T07:32:28;0.60;99.90
61841;DHT22;47773;53.174;6.614;2023-03-01T07:34:54;0.70;99.90
61841;DHT22;47773;53.174;6.614;2023-03-01T07:37:19;0.80;99.90
61841;DHT22;47773;53.174;6.614;2023-03-01T07:39:45;0.90;99.90
61841;DHT22;47773;53.174;6.614;2023-03-01T07:42:11;1.00;99.90
61841;DHT22;47773;53.174;6.614;2023-03-01T07:44:36;1.10;99.90
61841;DHT22;47773;53.174;6.614;2023-03-01T07:47:03;1.20;99.90
61841;DHT22;47773;53.174;6.614;2023-03-01T07:49:29;1.20;99.90
61841;DHT22;47773;53.174;6.614;2023-03-01T07:51:55;1.40;99.90
61841;DHT22;47773;53.174;6.614;2023-03-01T07:54:21;1.50;99.90
61841;DHT22;47773;53.174;6.614;2023-03-01T07:56:47;1.60;99.90
61841;DHT22;47773;53.174;6.614;2023-03-01T07:59:13;1.70;99.90
61841;DHT22;47773;53.174;6.614;2023-03-01T08:01:38;1.90;99.90
61841;DHT22;47773;53.174;6.614;2023-03-01T08:04:04;2.00;99.90
61841;DHT22;47773;53.174;6.614;2023-03-01T08:06:34;2.10;99.90
61841;DHT22;47773;53.174;6.614;2023-03-01T08:08:59;2.20;99.90
61841;DHT22;47773;53.174;6.614;2023-03-01T08:11:25;2.30;99.90
61841;DHT22;47773;53.174;6.614;2023-03-01T08:13:53;2.50;99.90
61841;DHT22;47773;53.174;6.614;2023-03-01T08:16:19;2.60;99.90
61841;DHT22;47773;53.174;6.614;2023-03-01T08:18:44;2.70;99.90
61841;DHT22;47773;53.174;6.614;2023-03-01T08:21:13;2.70;99.90
61841;DHT22;47773;53.174;6.614;2023-03-01T08:23:39;2.80;99.90
61841;DHT22;47773;53.174;6.614;2023-03-01T08:26:28;2.90;99.90
61841;DHT22;47773;53.174;6.614;2023-03-01T08:28:53;2.90;99.90
61841;DHT22;47773;53.174;6.614;2023-03-01T08:31:34;2.90;99.90
61841;DHT22;47773;53.174;6.614;2023-03-01T08:34:03;2.90;99.90
61841;DHT22;47773;53.174;6.614;2023-03-01T08:36:31;3.00;99.90
61841;DHT22;47773;53.174;6.614;2023-03-01T08:38:57;3.00;99.90
61841;DHT22;47773;53.174;6.614;2023-03-01T08:41:24;3.20;99.90
61841;DHT22;47773;53.174;6.614;2023-03-01T08:43:50;3.20;99.90
61841;DHT22;47773;53.174;6.614;2023-03-01T08:46:15;3.30;99.90
61841;DHT22;47773;53.174;6.614;2023-03-01T08:48:41;3.40;99.90
61841;DHT22;47773;53.174;6.614;2023-03-01T08:51:13;3.50;99.90
61841;DHT22;47773;53.174;6.614;2023-03-01T08:53:39;3.60;99.90
61841;DHT22;47773;53.174;6.614;2023-03-01T08:56:05;3.70;99.90
61841;DHT22;47773;53.174;6.614;2023-03-01T08:58:31;3.90;99.90
61841;DHT22;47773;53.174;6.614;2023-03-01T09:00:57;4.00;99.90
61841;DHT22;47773;53.174;6.614;2023-03-01T09:03:24;4.00;99.90
61841;DHT22;47773;53.174;6.614;2023-03-01T09:05:51;4.10;99.90
61841;DHT22;47773;53.174;6.614;2023-03-01T09:08:18;4.10;99.90
61841;DHT22;47773;53.174;6.614;2023-03-01T09:10:44;4.20;99.90
61841;DHT22;47773;53.174;6.614;2023-03-01T09:13:10;4.30;99.90
61841;DHT22;47773;53.174;6.614;2023-03-01T09:15:39;4.40;99.90
61841;DHT22;47773;53.174;6.614;2023-03-01T09:18:05;4.50;99.90
61841;DHT22;47773;53.174;6.614;2023-03-01T09:20:32;4.50;99.90
61841;DHT22;47773;53.174;6.614;2023-03-01T09:22:58;4.60;99.90
61841;DHT22;47773;53.174;6.614;2023-03-01T09:25:24;4.80;99.90
61841;DHT22;47773;53.174;6.614;2023-03-01T09:27:54;4.90;99.90
61841;DHT22;47773;53.174;6.614;2023-03-01T09:30:20;4.90;99.90
61841;DHT22;47773;53.174;6.614;2023-03-01T09:32:46;5.00;99.90
61841;DHT22;47773;53.174;6.614;2023-03-01T09:35:12;5.10;99.90
61841;DHT22;47773;53.174;6.614;2023-03-01T09:37:38;5.20;99.90
61841;DHT22;47773;53.174;6.614;2023-03-01T09:40:05;5.20;99.90
61841;DHT22;47773;53.174;6.614;2023-03-01T09:42:34;5.40;99.90
61841;DHT22;47773;53.174;6.614;2023-03-01T09:45:04;5.40;99.90
61841;DHT22;47773;53.174;6.614;2023-03-01T09:47:34;5.50;99.90
61841;DHT22;47773;53.174;6.614;2023-03-01T09:50:18;5.70;99.90
61841;DHT22;47773;53.174;6.614;2023-03-01T09:55:16;6.10;99.90
61841;DHT22;47773;53.174;6.614;2023-03-01T09:57:54;6.30;99.90
61841;DHT22;47773;53.174;6.614;2023-03-01T10:00:37;6.40;99.90
61841;DHT22;47773;53.174;6.614;2023-03-01T10:03:17;6.50;99.90
61841;DHT22;47773;53.174;6.614;2023-03-01T10:08:26;6.80;99.90
61841;DHT22;47773;53.174;6.614;2023-03-01T10:10:54;6.90;99.90
61841;DHT22;47773;53.174;6.614;2023-03-01T10:16:03;7.00;99.90
61841;DHT22;47773;53.174;6.614;2023-03-01T10:18:31;7.10;99.90
61841;DHT22;47773;53.174;6.614;2023-03-01T10:21:09;7.30;99.90
61841;DHT22;47773;53.174;6.614;2023-03-01T10:23:38;7.30;99.90
61841;DHT22;47773;53.174;6.614;2023-03-01T10:26:57;7.40;99.90
61841;DHT22;47773;53.174;6.614;2023-03-01T10:29:07;7.40;99.90
61841;DHT22;47773;53.174;6.614;2023-03-01T10:31:44;7.70;99.90
61841;DHT22;47773;53.174;6.614;2023-03-01T10:34:15;7.80;99.90
61841;DHT22;47773;53.174;6.614;2023-03-01T10:36:43;7.70;99.90
61841;DHT22;47773;53.174;6.614;2023-03-01T10:39:15;7.90;99.90
61841;DHT22;47773;53.174;6.614;2023-03-01T10:44:43;8.00;99.90
61841;DHT22;47773;53.174;6.614;2023-03-01T10:47:21;8.00;99.90
61841;DHT22;47773;53.174;6.614;2023-03-01T10:50:05;8.00;99.90
61841;DHT22;47773;53.174;6.614;2023-03-01T10:52:36;7.90;99.90
61841;DHT22;47773;53.174;6.614;2023-03-01T10:55:27;8.00;99.90
61841;DHT22;47773;53.174;6.614;2023-03-01T10:58:21;8.00;99.90
61841;DHT22;47773;53.174;6.614;2023-03-01T11:03:42;8.10;99.90
61841;DHT22;47773;53.174;6.614;2023-03-01T11:08:44;7.90;99.90
61841;DHT22;47773;53.174;6.614;2023-03-01T11:13:57;8.00;99.90
61841;DHT22;47773;53.174;6.614;2023-03-01T11:16:29;8.10;99.90
61841;DHT22;47773;53.174;6.614;2023-03-01T11:21:39;8.10;99.90
61841;DHT22;47773;53.174;6.614;2023-03-01T11:24:10;8.10;99.90
61841;DHT22;47773;53.174;6.614;2023-03-01T11:26:40;8.00;99.90
61841;DHT22;47773;53.174;6.614;2023-03-01T11:29:25;8.00;99.90
61841;DHT22;47773;53.174;6.614;2023-03-01T11:31:54;8.10;99.90
61841;DHT22;47773;53.174;6.614;2023-03-01T11:34:51;8.20;99.90
61841;DHT22;47773;53.174;6.614;2023-03-01T11:40:24;8.30;99.90
61841;DHT22;47773;53.174;6.614;2023-03-01T11:43:00;8.30;99.90
61841;DHT22;47773;53.174;6.614;2023-03-01T11:45:33;8.30;99.90
61841;DHT22;47773;53.174;6.614;2023-03-01T11:48:11;8.30;99.90
61841;DHT22;47773;53.174;6.614;2023-03-01T11:50:48;8.30;99.90
61841;DHT22;47773;53.174;6.614;2023-03-01T11:58:43;8.10;99.90
61841;DHT22;47773;53.174;6.614;2023-03-01T12:07:36;8.20;99.90
61841;DHT22;47773;53.174;6.614;2023-03-01T12:13:26;8.10;99.90
61841;DHT22;47773;53.174;6.614;2023-03-01T12:24:25;8.20;99.90
61841;DHT22;47773;53.174;6.614;2023-03-01T12:43:47;8.10;99.90
61841;DHT22;47773;53.174;6.614;2023-03-01T12:46:33;8.10;99.90
61841;DHT22;47773;53.174;6.614;2023-03-01T12:51:31;8.10;99.90
61841;DHT22;47773;53.174;6.614;2023-03-01T12:53:59;8.00;99.90
61841;DHT22;47773;53.174;6.614;2023-03-01T12:56:30;8.00;99.90
61841;DHT22;47773;53.174;6.614;2023-03-01T13:01:36;7.90;99.90
61841;DHT22;47773;53.174;6.614;2023-03-01T13:12:42;7.90;99.90
61841;DHT22;47773;53.174;6.614;2023-03-01T13:15:29;8.00;99.90
61841;DHT22;47773;53.174;6.614;2023-03-01T13:18:03;8.00;99.90
61841;DHT22;47773;53.174;6.614;2023-03-01T13:20:47;8.00;99.90
61841;DHT22;47773;53.174;6.614;2023-03-01T13:30:58;8.00;99.90
61841;DHT22;47773;53.174;6.614;2023-03-01T13:33:33;8.00;99.90
61841;DHT22;47773;53.174;6.614;2023-03-01T13:36:00;8.00;99.90
61841;DHT22;47773;53.174;6.614;2023-03-01T13:38:46;8.00;99.90
61841;DHT22;47773;53.174;6.614;2023-03-01T13:41:14;8.00;99.90
61841;DHT22;47773;53.174;6.614;2023-03-01T13:43:42;8.00;99.90
61841;DHT22;47773;53.174;6.614;2023-03-01T13:46:23;8.00;99.90
61841;DHT22;47773;53.174;6.614;2023-03-01T13:48:54;8.00;99.90
61841;DHT22;47773;53.174;6.614;2023-03-01T13:51:25;8.00;99.90
61841;DHT22;47773;53.174;6.614;2023-03-01T13:53:52;8.00;99.90
61841;DHT22;47773;53.174;6.614;2023-03-01T13:56:23;8.10;99.90
61841;DHT22;47773;53.174;6.614;2023-03-01T13:58:50;8.00;99.90
61841;DHT22;47773;53.174;6.614;2023-03-01T14:01:36;8.00;99.90
61841;DHT22;47773;53.174;6.614;2023-03-01T14:04:03;8.10;99.90
61841;DHT22;47773;53.174;6.614;2023-03-01T14:06:33;8.00;99.90
61841;DHT22;47773;53.174;6.614;2023-03-01T14:09:25;8.00;99.90
61841;DHT22;47773;53.174;6.614;2023-03-01T14:15:04;7.90;99.90
61841;DHT22;47773;53.174;6.614;2023-03-01T14:17:37;7.90;99.90
61841;DHT22;47773;53.174;6.614;2023-03-01T14:20:22;8.00;99.90
61841;DHT22;47773;53.174;6.614;2023-03-01T14:22:51;8.00;99.90
61841;DHT22;47773;53.174;6.614;2023-03-01T14:25:36;8.00;99.90
61841;DHT22;47773;53.174;6.614;2023-03-01T14:28:31;8.00;99.90
61841;DHT22;47773;53.174;6.614;2023-03-01T14:31:00;7.90;99.90
61841;DHT22;47773;53.174;6.614;2023-03-01T14:33:27;8.00;99.90
61841;DHT22;47773;53.174;6.614;2023-03-01T14:35:57;7.90;99.90
61841;DHT22;47773;53.174;6.614;2023-03-01T14:38:30;7.90;99.90
61841;DHT22;47773;53.174;6.614;2023-03-01T14:40:59;7.90;99.90
61841;DHT22;47773;53.174;6.614;2023-03-01T14:43:27;7.90;99.90
61841;DHT22;47773;53.174;6.614;2023-03-01T14:45:53;7.80;99.90
61841;DHT22;47773;53.174;6.614;2023-03-01T14:48:19;7.90;99.90
61841;DHT22;47773;53.174;6.614;2023-03-01T14:50:45;7.80;99.90
61841;DHT22;47773;53.174;6.614;2023-03-01T14:53:17;7.80;99.90
61841;DHT22;47773;53.174;6.614;2023-03-01T14:55:46;7.80;99.90
61841;DHT22;47773;53.174;6.614;2023-03-01T14:58:16;7.80;99.90
61841;DHT22;47773;53.174;6.614;2023-03-01T15:00:54;7.80;99.90
61841;DHT22;47773;53.174;6.614;2023-03-01T15:04:03;7.90;99.90
61841;DHT22;47773;53.174;6.614;2023-03-01T15:06:22;7.90;99.90
61841;DHT22;47773;53.174;6.614;2023-03-01T15:08:51;7.80;99.90
61841;DHT22;47773;53.174;6.614;2023-03-01T15:11:28;7.80;99.90
61841;DHT22;47773;53.174;6.614;2023-03-01T15:13:54;7.80;99.90
61841;DHT22;47773;53.174;6.614;2023-03-01T15:16:30;7.70;99.90
61841;DHT22;47773;53.174;6.614;2023-03-01T15:21:31;7.70;99.90
61841;DHT22;47773;53.174;6.614;2023-03-01T15:24:05;7.70;99.90
61841;DHT22;47773;53.174;6.614;2023-03-01T15:26:42;7.70;99.90
61841;DHT22;47773;53.174;6.614;2023-03-01T15:29:19;7.70;99.90
61841;DHT22;47773;53.174;6.614;2023-03-01T15:32:37;7.70;99.90
61841;DHT22;47773;53.174;6.614;2023-03-01T15:34:43;7.70;99.90
61841;DHT22;47773;53.174;6.614;2023-03-01T15:37:44;7.70;99.90
61841;DHT22;47773;53.174;6.614;2023-03-01T15:40:27;7.70;99.90
61841;DHT22;47773;53.174;6.614;2023-03-01T15:43:06;7.70;99.90
61841;DHT22;47773;53.174;6.614;2023-03-01T15:45:33;7.60;99.90
61841;DHT22;47773;53.174;6.614;2023-03-01T15:48:24;7.60;99.90
61841;DHT22;47773;53.174;6.614;2023-03-01T15:50:57;7.60;99.90
61841;DHT22;47773;53.174;6.614;2023-03-01T15:53:24;7.60;99.90
61841;DHT22;47773;53.174;6.614;2023-03-01T15:55:49;7.60;99.90
61841;DHT22;47773;53.174;6.614;2023-03-01T15:58:21;7.50;99.90
61841;DHT22;47773;53.174;6.614;2023-03-01T16:00:48;7.50;99.90
61841;DHT22;47773;53.174;6.614;2023-03-01T16:03:16;7.50;99.90
61841;DHT22;47773;53.174;6.614;2023-03-01T16:05:47;7.50;99.90
61841;DHT22;47773;53.174;6.614;2023-03-01T16:08:13;7.50;99.90
61841;DHT22;47773;53.174;6.614;2023-03-01T16:10:40;7.40;99.90
61841;DHT22;47773;53.174;6.614;2023-03-01T16:13:07;7.40;99.90
61841;DHT22;47773;53.174;6.614;2023-03-01T16:15:33;7.40;99.90
61841;DHT22;47773;53.174;6.614;2023-03-01T16:18:03;7.40;99.90
61841;DHT22;47773;53.174;6.614;2023-03-01T16:20:31;7.40;99.90
61841;DHT22;47773;53.174;6.614;2023-03-01T16:23:06;7.40;99.90
61841;DHT22;47773;53.174;6.614;2023-03-01T16:25:32;7.40;99.90
61841;DHT22;47773;53.174;6.614;2023-03-01T16:27:59;7.30;99.90
61841;DHT22;47773;53.174;6.614;2023-03-01T16:30:26;7.30;99.90
61841;DHT22;47773;53.174;6.614;2023-03-01T16:32:52;7.30;99.90
61841;DHT22;47773;53.174;6.614;2023-03-01T16:35:20;7.20;99.90
61841;DHT22;47773;53.174;6.614;2023-03-01T16:37:46;7.20;99.90
61841;DHT22;47773;53.174;6.614;2023-03-01T16:40:28;7.10;99.90
61841;DHT22;47773;53.174;6.614;2023-03-01T16:42:56;7.10;99.90
61841;DHT22;47773;53.174;6.614;2023-03-01T16:45:25;7.10;99.90
61841;DHT22;47773;53.174;6.614;2023-03-01T16:47:52;7.10;99.90
61841;DHT22;47773;53.174;6.614;2023-03-01T16:50:18;7.00;99.90
61841;DHT22;47773;53.174;6.614;2023-03-01T16:52:44;7.00;99.90
61841;DHT22;47773;53.174;6.614;2023-03-01T16:55:10;6.90;99.90
61841;DHT22;47773;53.174;6.614;2023-03-01T16:57:37;6.90;99.90
61841;DHT22;47773;53.174;6.614;2023-03-01T17:00:07;6.80;99.90
61841;DHT22;47773;53.174;6.614;2023-03-01T17:02:35;6.80;99.90
61841;DHT22;47773;53.174;6.614;2023-03-01T17:05:01;6.70;99.90
61841;DHT22;47773;53.174;6.614;2023-03-01T17:07:28;6.70;99.90
61841;DHT22;47773;53.174;6.614;2023-03-01T17:09:54;6.60;99.90
61841;DHT22;47773;53.174;6.614;2023-03-01T17:12:20;6.50;99.90
61841;DHT22;47773;53.174;6.614;2023-03-01T17:14:45;6.40;99.90
61841;DHT22;47773;53.174;6.614;2023-03-01T17:17:11;6.30;99.90
61841;DHT22;47773;53.174;6.614;2023-03-01T17:19:37;6.20;99.90
61841;DHT22;47773;53.174;6.614;2023-03-01T17:22:06;6.10;99.90
61841;DHT22;47773;53.174;6.614;2023-03-01T17:24:34;6.10;99.90
61841;DHT22;47773;53.174;6.614;2023-03-01T17:26:59;6.00;99.90
61841;DHT22;47773;53.174;6.614;2023-03-01T17:29:25;5.90;99.90
61841;DHT22;47773;53.174;6.614;2023-03-01T17:31:51;5.90;99.90
61841;DHT22;47773;53.174;6.614;2023-03-01T17:34:19;5.80;99.90
61841;DHT22;47773;53.174;6.614;2023-03-01T17:36:44;5.80;99.90
61841;DHT22;47773;53.174;6.614;2023-03-01T17:39:11;5.80;99.90
61841;DHT22;47773;53.174;6.614;2023-03-01T17:41:37;5.70;99.90
61841;DHT22;47773;53.174;6.614;2023-03-01T17:44:02;5.70;99.90